sensor_id;sensor_type;location;lat;lon;timestamp;pressure;altitude;pressure_sealevel;temperature;humidity
4590;BME280;2307;48.448;9.216;2023-05-24T00:00:02;95654.28;;;13.21;100.00
4590;BME280;2307;48.448;9.216;2023-05-24T00:02:33;95649.31;;;13.08;100.00
4590;BME280;2307;48.448;9.216;2023-05-24T00:05:01;95651.00;;;13.14;100.00
4590;BME280;2307;48.448;9.216;2023-05-24T00:07:29;95651.25;;;13.12;100.00
4590;BME280;2307;48.448;9.216;2023-05-24T00:09:55;95647.81;;;13.12;100.00
4590;BME280;2307;48.448;9.216;2023-05-24T00:12:22;95651.09;;;13.19;100.00
4590;BME280;2307;48.448;9.216;2023-05-24T00:14:49;95646.81;;;13.18;100.00
4590;BME280;2307;48.448;9.216;2023-05-24T00:17:16;95642.66;;;13.22;100.00
4590;BME280;2307;48.448;9.216;2023-05-24T00:19:42;95641.34;;;13.24;100.00
4590;BME280;2307;48.448;9.216;2023-05-24T00:22:08;95648.06;;;13.32;100.00
4590;BME280;2307;48.448;9.216;2023-05-24T00:24:35;95644.84;;;13.08;100.00
4590;BME280;2307;48.448;9.216;2023-05-24T00:27:02;95641.28;;;13.03;100.00
4590;BME280;2307;48.448;9.216;2023-05-24T00:29:28;95642.56;;;13.00;100.00
4590;BME280;2307;48.448;9.216;2023-05-24T00:31:56;95646.00;;;13.01;100.00
4590;BME280;2307;48.448;9.216;2023-05-24T00:34:22;95642.50;;;12.78;100.00
4590;BME280;2307;48.448;9.216;2023-05-24T00:36:49;95642.09;;;12.87;100.00
4590;BME280;2307;48.448;9.216;2023-05-24T00:39:16;95640.72;;;13.01;100.00
4590;BME280;2307;48.448;9.216;2023-05-24T00:41:42;95641.19;;;12.98;100.00
4590;BME280;2307;48.448;9.216;2023-05-24T00:44:08;95637.19;;;12.78;100.00
4590;BME280;2307;48.448;9.216;2023-05-24T00:46:35;95638.38;;;12.88;100.00
4590;BME280;2307;48.448;9.216;2023-05-24T00:49:03;95633.50;;;12.96;100.00
4590;BME280;2307;48.448;9.216;2023-05-24T00:51:30;95635.13;;;12.81;100.00
4590;BME280;2307;48.448;9.216;2023-05-24T00:53:57;95639.53;;;12.92;100.00
4590;BME280;2307;48.448;9.216;2023-05-24T00:56:24;95639.53;;;13.08;100.00
4590;BME280;2307;48.448;9.216;2023-05-24T00:58:51;95629.88;;;13.02;100.00
4590;BME280;2307;48.448;9.216;2023-05-24T01:01:20;95634.31;;;12.97;100.00
4590;BME280;2307;48.448;9.216;2023-05-24T01:03:49;95638.97;;;12.90;100.00
4590;BME280;2307;48.448;9.216;2023-05-24T01:06:17;95641.03;;;12.88;100.00
4590;BME280;2307;48.448;9.216;2023-05-24T01:08:52;95631.25;;;12.88;100.00
4590;BME280;2307;48.448;9.216;2023-05-24T01:11:22;95637.28;;;12.84;100.00
4590;BME280;2307;48.448;9.216;2023-05-24T01:13:53;95635.13;;;12.81;100.00
4590;BME280;2307;48.448;9.216;2023-05-24T01:16:24;95643.25;;;12.74;100.00
4590;BME280;2307;48.448;9.216;2023-05-24T01:18:53;95640.50;;;12.86;100.00
4590;BME280;2307;48.448;9.216;2023-05-24T01:21:24;95644.28;;;12.90;100.00
4590;BME280;2307;48.448;9.216;2023-05-24T01:24:04;95650.22;;;12.97;100.00
4590;BME280;2307;48.448;9.216;2023-05-24T01:26:36;95641.78;;;13.00;100.00
4590;BME280;2307;48.448;9.216;2023-05-24T01:29:06;95645.16;;;12.95;100.00
4590;BME280;2307;48.448;9.216;2023-05-24T01:31:33;95642.59;;;12.84;100.00
4590;BME280;2307;48.448;9.216;2023-05-24T01:34:00;95643.31;;;12.79;100.00
4590;BME280;2307;48.448;9.216;2023-05-24T01:36:26;95639.63;;;12.80;100.00
4590;BME280;2307;48.448;9.216;2023-05-24T01:38:53;95640.59;;;12.74;100.00
4590;BME280;2307;48.448;9.216;2023-05-24T01:41:38;95630.06;;;12.79;100.00
4590;BME280;2307;48.448;9.216;2023-05-24T01:44:08;95639.22;;;12.71;100.00
4590;BME280;2307;48.448;9.216;2023-05-24T01:46:38;95634.88;;;12.82;100.00
4590;BME280;2307;48.448;9.216;2023-05-24T01:49:16;95637.78;;;12.81;100.00
4590;BME280;2307;48.448;9.216;2023-05-24T01:51:47;95631.88;;;12.95;100.00
4590;BME280;2307;48.448;9.216;2023-05-24T01:54:14;95633.19;;;12.93;100.00
4590;BME280;2307;48.448;9.216;2023-05-24T01:56:44;95631.50;;;12.87;100.00
4590;BME280;2307;48.448;9.216;2023-05-24T01:59:13;95637.03;;;12.68;100.00
4590;BME280;2307;48.448;9.216;2023-05-24T02:01:40;95639.03;;;12.78;100.00
4590;BME280;2307;48.448;9.216;2023-05-24T02:04:06;95633.50;;;12.79;100.00
4590;BME280;2307;48.448;9.216;2023-05-24T02:06:33;95634.66;;;12.67;100.00
4590;BME280;2307;48.448;9.216;2023-05-24T02:09:00;95638.31;;;12.66;100.00
4590;BME280;2307;48.448;9.216;2023-05-24T02:11:26;95631.91;;;12.78;100.00
4590;BME280;2307;48.448;9.216;2023-05-24T02:13:52;95626.19;;;12.87;100.00
4590;BME280;2307;48.448;9.216;2023-05-24T02:16:20;95625.50;;;12.74;100.00
4590;BME280;2307;48.448;9.216;2023-05-24T02:18:47;95622.75;;;12.69;100.00
4590;BME280;2307;48.448;9.216;2023-05-24T02:21:14;95622.25;;;12.56;100.00
4590;BME280;2307;48.448;9.216;2023-05-24T02:23:41;95630.81;;;12.74;100.00
4590;BME280;2307;48.448;9.216;2023-05-24T02:26:07;95623.06;;;12.73;100.00
4590;BME280;2307;48.448;9.216;2023-05-24T02:28:35;95621.47;;;12.72;100.00
4590;BME280;2307;48.448;9.216;2023-05-24T02:31:02;95621.50;;;12.55;100.00
4590;BME280;2307;48.448;9.216;2023-05-24T02:33:29;95630.06;;;12.62;100.00
4590;BME280;2307;48.448;9.216;2023-05-24T02:35:56;95629.66;;;12.54;100.00
4590;BME280;2307;48.448;9.216;2023-05-24T02:38:22;95625.31;;;12.48;100.00
4590;BME280;2307;48.448;9.216;2023-05-24T02:40:48;95630.31;;;12.44;100.00
4590;BME280;2307;48.448;9.216;2023-05-24T02:43:15;95625.63;;;12.35;100.00
4590;BME280;2307;48.448;9.216;2023-05-24T02:45:41;95617.13;;;12.33;100.00
4590;BME280;2307;48.448;9.216;2023-05-24T02:48:07;95627.41;;;12.29;100.00
4590;BME280;2307;48.448;9.216;2023-05-24T02:50:35;95626.22;;;12.53;100.00
4590;BME280;2307;48.448;9.216;2023-05-24T02:53:01;95619.81;;;12.49;100.00
4590;BME280;2307;48.448;9.216;2023-05-24T02:55:28;95626.63;;;12.45;100.00
4590;BME280;2307;48.448;9.216;2023-05-24T02:57:56;95623.00;;;12.35;100.00
4590;BME280;2307;48.448;9.216;2023-05-24T03:00:22;95620.94;;;12.37;100.00
4590;BME280;2307;48.448;9.216;2023-05-24T03:02:49;95618.97;;;12.32;100.00
4590;BME280;2307;48.448;9.216;2023-05-24T03:05:16;95618.59;;;12.23;100.00
4590;BME280;2307;48.448;9.216;2023-05-24T03:07:44;95627.09;;;12.42;100.00
4590;BME280;2307;48.448;9.216;2023-05-24T03:10:10;95627.25;;;12.36;100.00
4590;BME280;2307;48.448;9.216;2023-05-24T03:12:37;95628.06;;;12.36;100.00
4590;BME280;2307;48.448;9.216;2023-05-24T03:15:03;95622.59;;;12.43;100.00
4590;BME280;2307;48.448;9.216;2023-05-24T03:17:30;95626.13;;;12.48;100.00
4590;BME280;2307;48.448;9.216;2023-05-24T03:19:56;95629.50;;;12.44;100.00
4590;BME280;2307;48.448;9.216;2023-05-24T03:22:22;95630.06;;;12.29;100.00
4590;BME280;2307;48.448;9.216;2023-05-24T03:24:50;95633.28;;;12.03;100.00
4590;BME280;2307;48.448;9.216;2023-05-24T03:27:16;95640.06;;;12.10;100.00
4590;BME280;2307;48.448;9.216;2023-05-24T03:29:43;95641.81;;;12.21;100.00
4590;BME280;2307;48.448;9.216;2023-05-24T03:32:09;95637.78;;;12.02;100.00
4590;BME280;2307;48.448;9.216;2023-05-24T03:34:35;95639.34;;;11.87;100.00
4590;BME280;2307;48.448;9.216;2023-05-24T03:37:02;95637.56;;;11.76;100.00
4590;BME280;2307;48.448;9.216;2023-05-24T03:39:28;95637.75;;;11.86;100.00
4590;BME280;2307;48.448;9.216;2023-05-24T03:41:56;95633.97;;;11.82;100.00
4590;BME280;2307;48.448;9.216;2023-05-24T03:44:22;95641.09;;;11.81;100.00
4590;BME280;2307;48.448;9.216;2023-05-24T03:46:48;95638.06;;;11.89;100.00
4590;BME280;2307;48.448;9.216;2023-05-24T03:49:15;95638.69;;;11.80;100.00
4590;BME280;2307;48.448;9.216;2023-05-24T03:51:41;95638.22;;;11.83;100.00
4590;BME280;2307;48.448;9.216;2023-05-24T03:54:08;95638.13;;;11.66;100.00
4590;BME280;2307;48.448;9.216;2023-05-24T03:56:34;95646.88;;;11.66;100.00
4590;BME280;2307;48.448;9.216;2023-05-24T03:59:02;95642.75;;;11.70;100.00
4590;BME280;2307;48.448;9.216;2023-05-24T04:01:28;95642.75;;;11.59;100.00
4590;BME280;2307;48.448;9.216;2023-05-24T04:03:56;95644.72;;;11.63;100.00
4590;BME280;2307;48.448;9.216;2023-05-24T04:06:22;95649.78;;;11.53;100.00
4590;BME280;2307;48.448;9.216;2023-05-24T04:08:53;95651.84;;;11.51;100.00
4590;BME280;2307;48.448;9.216;2023-05-24T04:11:19;95645.53;;;11.52;100.00
4590;BME280;2307;48.448;9.216;2023-05-24T04:13:46;95646.50;;;11.35;100.00
4590;BME280;2307;48.448;9.216;2023-05-24T04:16:14;95655.81;;;11.37;100.00
4590;BME280;2307;48.448;9.216;2023-05-24T04:18:42;95655.56;;;11.39;100.00
4590;BME280;2307;48.448;9.216;2023-05-24T04:21:09;95661.88;;;11.49;100.00
4590;BME280;2307;48.448;9.216;2023-05-24T04:23:35;95650.25;;;11.50;100.00
4590;BME280;2307;48.448;9.216;2023-05-24T04:26:02;95653.59;;;11.57;100.00
4590;BME280;2307;48.448;9.216;2023-05-24T04:28:28;95650.56;;;11.65;100.00
4590;BME280;2307;48.448;9.216;2023-05-24T04:30:55;95648.03;;;11.59;100.00
4590;BME280;2307;48.448;9.216;2023-05-24T04:33:24;95650.34;;;11.55;100.00
4590;BME280;2307;48.448;9.216;2023-05-24T04:35:50;95658.53;;;11.42;100.00
4590;BME280;2307;48.448;9.216;2023-05-24T04:38:17;95651.53;;;11.48;100.00
4590;BME280;2307;48.448;9.216;2023-05-24T04:40:44;95643.44;;;11.66;100.00
4590;BME280;2307;48.448;9.216;2023-05-24T04:43:11;95649.88;;;11.58;100.00
4590;BME280;2307;48.448;9.216;2023-05-24T04:45:38;95652.44;;;11.42;100.00
4590;BME280;2307;48.448;9.216;2023-05-24T04:48:05;95640.19;;;11.64;100.00
4590;BME280;2307;48.448;9.216;2023-05-24T04:50:32;95639.31;;;11.70;100.00
4590;BME280;2307;48.448;9.216;2023-05-24T04:53:01;95633.25;;;11.46;100.00
4590;BME280;2307;48.448;9.216;2023-05-24T04:55:28;95637.56;;;11.76;100.00
4590;BME280;2307;48.448;9.216;2023-05-24T04:57:54;95636.75;;;11.75;100.00
4590;BME280;2307;48.448;9.216;2023-05-24T05:00:21;95633.38;;;11.80;100.00
4590;BME280;2307;48.448;9.216;2023-05-24T05:02:47;95628.41;;;11.95;100.00
4590;BME280;2307;48.448;9.216;2023-05-24T05:05:13;95631.69;;;12.02;100.00
4590;BME280;2307;48.448;9.216;2023-05-24T05:07:41;95632.13;;;11.82;100.00
4590;BME280;2307;48.448;9.216;2023-05-24T05:10:08;95624.22;;;11.99;100.00
4590;BME280;2307;48.448;9.216;2023-05-24T05:12:34;95632.44;;;12.14;100.00
4590;BME280;2307;48.448;9.216;2023-05-24T05:15:00;95631.88;;;12.12;100.00
4590;BME280;2307;48.448;9.216;2023-05-24T05:17:27;95644.34;;;12.00;100.00
4590;BME280;2307;48.448;9.216;2023-05-24T05:19:53;95647.66;;;12.07;100.00
4590;BME280;2307;48.448;9.216;2023-05-24T05:22:20;95643.59;;;11.88;100.00
4590;BME280;2307;48.448;9.216;2023-05-24T05:24:47;95641.56;;;12.06;100.00
4590;BME280;2307;48.448;9.216;2023-05-24T05:27:14;95644.16;;;12.18;100.00
4590;BME280;2307;48.448;9.216;2023-05-24T05:29:40;95655.00;;;12.16;100.00
4590;BME280;2307;48.448;9.216;2023-05-24T05:32:06;95648.75;;;11.94;100.00
4590;BME280;2307;48.448;9.216;2023-05-24T05:34:33;95652.84;;;12.02;100.00
4590;BME280;2307;48.448;9.216;2023-05-24T05:36:59;95650.22;;;11.73;100.00
4590;BME280;2307;48.448;9.216;2023-05-24T05:39:25;95647.22;;;11.58;100.00
4590;BME280;2307;48.448;9.216;2023-05-24T05:41:53;95649.53;;;11.55;100.00
4590;BME280;2307;48.448;9.216;2023-05-24T05:44:20;95656.78;;;11.59;100.00
4590;BME280;2307;48.448;9.216;2023-05-24T05:46:46;95651.72;;;11.58;100.00
4590;BME280;2307;48.448;9.216;2023-05-24T05:49:12;95650.22;;;11.73;100.00
4590;BME280;2307;48.448;9.216;2023-05-24T05:51:39;95653.81;;;11.96;100.00
4590;BME280;2307;48.448;9.216;2023-05-24T05:54:06;95661.00;;;11.84;100.00
4590;BME280;2307;48.448;9.216;2023-05-24T05:56:38;95654.28;;;11.93;100.00
4590;BME280;2307;48.448;9.216;2023-05-24T05:59:10;95655.41;;;12.25;100.00
4590;BME280;2307;48.448;9.216;2023-05-24T06:01:37;95658.19;;;12.18;100.00
4590;BME280;2307;48.448;9.216;2023-05-24T06:04:04;95658.31;;;12.23;100.00
4590;BME280;2307;48.448;9.216;2023-05-24T06:06:30;95655.28;;;12.03;100.00
4590;BME280;2307;48.448;9.216;2023-05-24T06:08:57;95658.59;;;12.10;100.00
4590;BME280;2307;48.448;9.216;2023-05-24T06:11:23;95656.09;;;12.04;100.00
4590;BME280;2307;48.448;9.216;2023-05-24T06:13:51;95659.41;;;12.11;100.00
4590;BME280;2307;48.448;9.216;2023-05-24T06:16:18;95662.13;;;12.16;100.00
4590;BME280;2307;48.448;9.216;2023-05-24T06:18:45;95661.44;;;12.37;100.00
4590;BME280;2307;48.448;9.216;2023-05-24T06:21:11;95662.81;;;12.11;100.00
4590;BME280;2307;48.448;9.216;2023-05-24T06:23:38;95662.88;;;12.28;100.00
4590;BME280;2307;48.448;9.216;2023-05-24T06:26:05;95664.91;;;12.09;100.00
4590;BME280;2307;48.448;9.216;2023-05-24T06:28:32;95666.06;;;11.85;100.00
4590;BME280;2307;48.448;9.216;2023-05-24T06:30:59;95662.69;;;11.90;100.00
4590;BME280;2307;48.448;9.216;2023-05-24T06:33:27;95669.47;;;11.97;100.00
4590;BME280;2307;48.448;9.216;2023-05-24T06:35:53;95672.06;;;12.09;100.00
4590;BME280;2307;48.448;9.216;2023-05-24T06:38:19;95671.69;;;12.17;100.00
4590;BME280;2307;48.448;9.216;2023-05-24T06:40:46;95676.97;;;12.17;100.00
4590;BME280;2307;48.448;9.216;2023-05-24T06:43:12;95671.56;;;12.12;100.00
4590;BME280;2307;48.448;9.216;2023-05-24T06:45:38;95677.00;;;12.34;100.00
4590;BME280;2307;48.448;9.216;2023-05-24T06:48:05;95669.78;;;12.29;100.00
4590;BME280;2307;48.448;9.216;2023-05-24T06:50:33;95670.19;;;12.38;100.00
4590;BME280;2307;48.448;9.216;2023-05-24T06:53:00;95677.75;;;12.46;100.00
4590;BME280;2307;48.448;9.216;2023-05-24T06:55:26;95670.63;;;12.79;100.00
4590;BME280;2307;48.448;9.216;2023-05-24T06:57:53;95676.56;;;12.87;100.00
4590;BME280;2307;48.448;9.216;2023-05-24T07:00:20;95682.50;;;12.60;100.00
4590;BME280;2307;48.448;9.216;2023-05-24T07:02:46;95674.78;;;12.75;100.00
4590;BME280;2307;48.448;9.216;2023-05-24T07:05:12;95676.78;;;12.68;100.00
4590;BME280;2307;48.448;9.216;2023-05-24T07:07:41;95676.41;;;13.10;100.00
4590;BME280;2307;48.448;9.216;2023-05-24T07:10:08;95685.72;;;12.79;100.00
4590;BME280;2307;48.448;9.216;2023-05-24T07:12:34;95688.94;;;12.64;100.00
4590;BME280;2307;48.448;9.216;2023-05-24T07:15:01;95692.78;;;12.73;100.00
4590;BME280;2307;48.448;9.216;2023-05-24T07:17:27;95702.84;;;12.71;100.00
4590;BME280;2307;48.448;9.216;2023-05-24T07:19:54;95698.47;;;12.65;100.00
4590;BME280;2307;48.448;9.216;2023-05-24T07:22:20;95697.94;;;12.97;100.00
4590;BME280;2307;48.448;9.216;2023-05-24T07:24:49;95699.69;;;12.91;100.00
4590;BME280;2307;48.448;9.216;2023-05-24T07:27:16;95704.44;;;12.72;100.00
4590;BME280;2307;48.448;9.216;2023-05-24T07:29:42;95693.91;;;12.61;100.00
4590;BME280;2307;48.448;9.216;2023-05-24T07:32:08;95692.63;;;12.80;100.00
4590;BME280;2307;48.448;9.216;2023-05-24T07:34:35;95696.38;;;13.01;100.00
4590;BME280;2307;48.448;9.216;2023-05-24T07:37:03;95698.28;;;13.39;100.00
4590;BME280;2307;48.448;9.216;2023-05-24T07:39:30;95694.16;;;13.48;100.00
4590;BME280;2307;48.448;9.216;2023-05-24T07:41:57;95685.69;;;13.29;100.00
4590;BME280;2307;48.448;9.216;2023-05-24T07:44:24;95695.28;;;13.52;100.00
4590;BME280;2307;48.448;9.216;2023-05-24T07:46:51;95704.88;;;13.53;100.00
4590;BME280;2307;48.448;9.216;2023-05-24T07:49:17;95707.13;;;13.82;100.00
4590;BME280;2307;48.448;9.216;2023-05-24T07:51:44;95710.28;;;13.41;100.00
4590;BME280;2307;48.448;9.216;2023-05-24T07:54:10;95711.50;;;13.72;100.00
4590;BME280;2307;48.448;9.216;2023-05-24T07:56:36;95716.25;;;13.92;100.00
4590;BME280;2307;48.448;9.216;2023-05-24T07:59:04;95725.25;;;13.91;100.00
4590;BME280;2307;48.448;9.216;2023-05-24T08:01:32;95715.53;;;13.58;100.00
4590;BME280;2307;48.448;9.216;2023-05-24T08:03:59;95719.31;;;13.62;100.00
4590;BME280;2307;48.448;9.216;2023-05-24T08:06:26;95728.41;;;13.88;100.00
4590;BME280;2307;48.448;9.216;2023-05-24T08:08:53;95726.38;;;13.73;100.00
4590;BME280;2307;48.448;9.216;2023-05-24T08:11:20;95728.59;;;13.81;100.00
4590;BME280;2307;48.448;9.216;2023-05-24T08:13:46;95732.78;;;13.77;100.00
4590;BME280;2307;48.448;9.216;2023-05-24T08:16:14;95739.00;;;13.44;100.00
4590;BME280;2307;48.448;9.216;2023-05-24T08:18:40;95729.59;;;13.20;100.00
4590;BME280;2307;48.448;9.216;2023-05-24T08:21:07;95739.06;;;13.49;100.00
4590;BME280;2307;48.448;9.216;2023-05-24T08:23:34;95741.47;;;13.51;100.00
4590;BME280;2307;48.448;9.216;2023-05-24T08:26:00;95739.09;;;13.54;100.00
4590;BME280;2307;48.448;9.216;2023-05-24T08:28:27;95745.00;;;13.56;100.00
4590;BME280;2307;48.448;9.216;2023-05-24T08:30:53;95741.97;;;13.31;100.00
4590;BME280;2307;48.448;9.216;2023-05-24T08:33:21;95747.28;;;13.14;100.00
4590;BME280;2307;48.448;9.216;2023-05-24T08:35:48;95748.94;;;13.04;100.00
4590;BME280;2307;48.448;9.216;2023-05-24T08:38:15;95746.44;;;12.81;100.00
4590;BME280;2307;48.448;9.216;2023-05-24T08:40:41;95753.63;;;12.68;100.00
4590;BME280;2307;48.448;9.216;2023-05-24T08:43:07;95749.97;;;12.69;100.00
4590;BME280;2307;48.448;9.216;2023-05-24T08:45:36;95753.81;;;12.78;100.00
4590;BME280;2307;48.448;9.216;2023-05-24T08:48:03;95747.22;;;13.09;100.00
4590;BME280;2307;48.448;9.216;2023-05-24T08:50:31;95757.91;;;13.14;100.00
4590;BME280;2307;48.448;9.216;2023-05-24T08:52:58;95758.25;;;12.90;100.00
4590;BME280;2307;48.448;9.216;2023-05-24T08:55:26;95750.22;;;13.01;100.00
4590;BME280;2307;48.448;9.216;2023-05-24T08:57:53;95749.38;;;13.12;100.00
4590;BME280;2307;48.448;9.216;2023-05-24T09:00:20;95760.34;;;13.04;100.00
4590;BME280;2307;48.448;9.216;2023-05-24T09:02:48;95756.41;;;13.07;100.00
4590;BME280;2307;48.448;9.216;2023-05-24T09:05:15;95754.91;;;13.11;100.00
4590;BME280;2307;48.448;9.216;2023-05-24T09:07:43;95754.50;;;13.02;100.00
4590;BME280;2307;48.448;9.216;2023-05-24T09:10:10;95771.50;;;12.73;100.00
4590;BME280;2307;48.448;9.216;2023-05-24T09:12:36;95772.50;;;12.55;100.00
4590;BME280;2307;48.448;9.216;2023-05-24T09:15:04;95763.91;;;12.48;100.00
4590;BME280;2307;48.448;9.216;2023-05-24T09:17:31;95762.84;;;12.21;100.00
4590;BME280;2307;48.448;9.216;2023-05-24T09:22:34;95774.56;;;12.37;100.00
4590;BME280;2307;48.448;9.216;2023-05-24T09:25:03;95780.25;;;12.45;100.00
4590;BME280;2307;48.448;9.216;2023-05-24T09:27:30;95772.31;;;12.45;100.00
4590;BME280;2307;48.448;9.216;2023-05-24T09:29:58;95773.72;;;12.64;100.00
4590;BME280;2307;48.448;9.216;2023-05-24T09:32:26;95767.81;;;12.74;100.00
4590;BME280;2307;48.448;9.216;2023-05-24T09:34:53;95773.25;;;12.67;100.00
4590;BME280;2307;48.448;9.216;2023-05-24T09:37:20;95773.63;;;12.31;100.00
4590;BME280;2307;48.448;9.216;2023-05-24T09:39:47;95771.94;;;12.53;100.00
4590;BME280;2307;48.448;9.216;2023-05-24T09:42:16;95761.72;;;12.90;100.00
4590;BME280;2307;48.448;9.216;2023-05-24T09:44:45;95772.66;;;12.94;100.00
4590;BME280;2307;48.448;9.216;2023-05-24T09:47:11;95767.06;;;13.23;100.00
4590;BME280;2307;48.448;9.216;2023-05-24T09:49:38;95765.41;;;13.56;100.00
4590;BME280;2307;48.448;9.216;2023-05-24T09:52:05;95762.41;;;13.14;100.00
4590;BME280;2307;48.448;9.216;2023-05-24T09:54:32;95756.13;;;13.20;100.00
4590;BME280;2307;48.448;9.216;2023-05-24T09:56:59;95757.97;;;13.19;100.00
4590;BME280;2307;48.448;9.216;2023-05-24T09:59:27;95761.59;;;13.13;100.00
4590;BME280;2307;48.448;9.216;2023-05-24T10:02:01;95760.94;;;13.40;100.00
4590;BME280;2307;48.448;9.216;2023-05-24T10:04:34;95755.03;;;13.93;100.00
4590;BME280;2307;48.448;9.216;2023-05-24T10:07:01;95757.31;;;14.06;100.00
4590;BME280;2307;48.448;9.216;2023-05-24T10:09:27;95760.22;;;14.26;100.00
4590;BME280;2307;48.448;9.216;2023-05-24T10:11:58;95755.28;;;14.13;100.00
4590;BME280;2307;48.448;9.216;2023-05-24T10:14:29;95750.97;;;14.07;100.00
4590;BME280;2307;48.448;9.216;2023-05-24T10:16:57;95748.97;;;14.19;100.00
4590;BME280;2307;48.448;9.216;2023-05-24T10:19:28;95758.06;;;14.23;100.00
4590;BME280;2307;48.448;9.216;2023-05-24T10:21:54;95766.06;;;14.50;100.00
4590;BME280;2307;48.448;9.216;2023-05-24T10:24:22;95761.13;;;14.15;100.00
4590;BME280;2307;48.448;9.216;2023-05-24T10:26:49;95759.47;;;14.30;100.00
4590;BME280;2307;48.448;9.216;2023-05-24T10:29:18;95753.31;;;13.81;100.00
4590;BME280;2307;48.448;9.216;2023-05-24T10:31:50;95763.16;;;13.48;100.00
4590;BME280;2307;48.448;9.216;2023-05-24T10:34:17;95752.66;;;13.36;100.00
4590;BME280;2307;48.448;9.216;2023-05-24T10:36:45;95747.81;;;13.50;100.00
4590;BME280;2307;48.448;9.216;2023-05-24T10:39:12;95753.13;;;13.50;100.00
4590;BME280;2307;48.448;9.216;2023-05-24T10:41:39;95748.97;;;13.37;100.00
4590;BME280;2307;48.448;9.216;2023-05-24T10:44:09;95743.06;;;13.35;100.00
4590;BME280;2307;48.448;9.216;2023-05-24T10:46:35;95751.22;;;13.28;100.00
4590;BME280;2307;48.448;9.216;2023-05-24T10:49:03;95752.97;;;13.56;100.00
4590;BME280;2307;48.448;9.216;2023-05-24T10:51:34;95755.63;;;13.40;100.00
4590;BME280;2307;48.448;9.216;2023-05-24T10:54:12;95755.88;;;13.21;100.00
4590;BME280;2307;48.448;9.216;2023-05-24T10:56:39;95758.44;;;13.33;100.00
4590;BME280;2307;48.448;9.216;2023-05-24T10:59:05;95756.06;;;13.15;100.00
4590;BME280;2307;48.448;9.216;2023-05-24T11:01:32;95759.66;;;13.25;100.00
4590;BME280;2307;48.448;9.216;2023-05-24T11:04:09;95759.78;;;13.02;100.00
4590;BME280;2307;48.448;9.216;2023-05-24T11:06:45;95755.00;;;13.16;100.00
4590;BME280;2307;48.448;9.216;2023-05-24T11:09:13;95757.53;;;12.94;100.00
4590;BME280;2307;48.448;9.216;2023-05-24T11:11:42;95755.09;;;12.76;100.00
4590;BME280;2307;48.448;9.216;2023-05-24T11:14:09;95746.69;;;12.96;100.00
4590;BME280;2307;48.448;9.216;2023-05-24T11:16:36;95750.31;;;13.23;100.00
4590;BME280;2307;48.448;9.216;2023-05-24T11:19:11;95755.94;;;12.93;100.00
4590;BME280;2307;48.448;9.216;2023-05-24T11:21:38;95754.56;;;12.91;100.00
4590;BME280;2307;48.448;9.216;2023-05-24T11:24:05;95754.00;;;12.89;100.00
4590;BME280;2307;48.448;9.216;2023-05-24T11:26:37;95751.09;;;12.73;100.00
4590;BME280;2307;48.448;9.216;2023-05-24T11:29:04;95753.97;;;12.55;100.00
4590;BME280;2307;48.448;9.216;2023-05-24T11:31:31;95756.91;;;12.42;100.00
4590;BME280;2307;48.448;9.216;2023-05-24T11:33:58;95751.41;;;12.60;100.00
4590;BME280;2307;48.448;9.216;2023-05-24T11:36:26;95745.63;;;12.63;100.00
4590;BME280;2307;48.448;9.216;2023-05-24T11:38:54;95752.34;;;12.54;100.00
4590;BME280;2307;48.448;9.216;2023-05-24T11:41:20;95746.84;;;12.44;100.00
4590;BME280;2307;48.448;9.216;2023-05-24T11:43:47;95754.84;;;12.61;100.00
4590;BME280;2307;48.448;9.216;2023-05-24T11:46:13;95756.03;;;12.53;100.00
4590;BME280;2307;48.448;9.216;2023-05-24T11:48:40;95755.19;;;12.64;100.00
4590;BME280;2307;48.448;9.216;2023-05-24T11:51:06;95748.66;;;12.55;100.00
4590;BME280;2307;48.448;9.216;2023-05-24T11:53:34;95751.31;;;12.55;100.00
4590;BME280;2307;48.448;9.216;2023-05-24T11:56:00;95753.97;;;12.72;100.00
4590;BME280;2307;48.448;9.216;2023-05-24T11:58:31;95752.47;;;12.76;100.00
4590;BME280;2307;48.448;9.216;2023-05-24T12:01:00;95747.06;;;12.54;100.00
4590;BME280;2307;48.448;9.216;2023-05-24T12:03:27;95745.44;;;12.53;100.00
4590;BME280;2307;48.448;9.216;2023-05-24T12:05:55;95747.13;;;12.59;100.00
4590;BME280;2307;48.448;9.216;2023-05-24T12:08:22;95737.22;;;13.00;100.00
4590;BME280;2307;48.448;9.216;2023-05-24T12:10:49;95741.66;;;13.11;100.00
4590;BME280;2307;48.448;9.216;2023-05-24T12:13:19;95750.31;;;12.90;100.00
4590;BME280;2307;48.448;9.216;2023-05-24T12:15:48;95744.03;;;12.96;100.00
4590;BME280;2307;48.448;9.216;2023-05-24T12:18:18;95738.75;;;12.96;100.00
4590;BME280;2307;48.448;9.216;2023-05-24T12:20:44;95741.97;;;13.14;100.00
4590;BME280;2307;48.448;9.216;2023-05-24T12:23:11;95742.66;;;12.76;100.00
4590;BME280;2307;48.448;9.216;2023-05-24T12:25:37;95736.34;;;12.77;100.00
4590;BME280;2307;48.448;9.216;2023-05-24T12:28:05;95745.25;;;13.05;100.00
4590;BME280;2307;48.448;9.216;2023-05-24T12:30:31;95743.44;;;13.22;100.00
4590;BME280;2307;48.448;9.216;2023-05-24T12:32:58;95743.69;;;12.75;100.00
4590;BME280;2307;48.448;9.216;2023-05-24T12:35:25;95749.97;;;12.86;100.00
4590;BME280;2307;48.448;9.216;2023-05-24T12:37:56;95745.81;;;12.90;100.00
4590;BME280;2307;48.448;9.216;2023-05-24T12:40:23;95735.75;;;12.92;100.00
4590;BME280;2307;48.448;9.216;2023-05-24T12:42:50;95750.16;;;12.96;100.00
4590;BME280;2307;48.448;9.216;2023-05-24T12:45:18;95751.28;;;12.84;100.00
4590;BME280;2307;48.448;9.216;2023-05-24T12:47:48;95744.28;;;12.77;100.00
4590;BME280;2307;48.448;9.216;2023-05-24T12:50:15;95739.31;;;12.81;100.00
4590;BME280;2307;48.448;9.216;2023-05-24T12:52:42;95740.50;;;12.90;100.00
4590;BME280;2307;48.448;9.216;2023-05-24T12:55:10;95740.63;;;13.12;100.00
4590;BME280;2307;48.448;9.216;2023-05-24T12:57:37;95747.84;;;13.16;100.00
4590;BME280;2307;48.448;9.216;2023-05-24T13:00:04;95751.94;;;13.24;100.00
4590;BME280;2307;48.448;9.216;2023-05-24T13:02:33;95747.50;;;13.46;100.00
4590;BME280;2307;48.448;9.216;2023-05-24T13:04:59;95751.22;;;13.28;98.51
4590;BME280;2307;48.448;9.216;2023-05-24T13:07:26;95751.44;;;13.60;100.00
4590;BME280;2307;48.448;9.216;2023-05-24T13:09:52;95745.25;;;13.76;95.62
4590;BME280;2307;48.448;9.216;2023-05-24T13:12:19;95749.78;;;13.21;95.07